sensor_id;sensor_type;location;lat;lon;timestamp;pressure;altitude;pressure_sealevel;temperature;humidity
53116;BME280;39010;48.088;7.954;2023-01-16T00:01:25;97568.03;;;5.08;59.07
53116;BME280;39010;48.088;7.954;2023-01-16T00:03:52;97568.56;;;5.03;59.36
53116;BME280;39010;48.088;7.954;2023-01-16T00:06:19;97564.91;;;5.04;58.66
53116;BME280;39010;48.088;7.954;2023-01-16T00:08:46;97547.44;;;5.01;59.14
53116;BME280;39010;48.088;7.954;2023-01-16T00:11:14;97540.31;;;5.02;59.25
53116;BME280;39010;48.088;7.954;2023-01-16T00:13:41;97533.81;;;5.05;58.79
53116;BME280;39010;48.088;7.954;2023-01-16T00:16:07;97524.16;;;5.04;58.69
53116;BME280;39010;48.088;7.954;2023-01-16T00:18:34;97520.50;;;5.05;59.13
53116;BME280;39010;48.088;7.954;2023-01-16T00:21:01;97502.72;;;5.05;57.89
53116;BME280;39010;48.088;7.954;2023-01-16T00:23:28;97518.84;;;5.04;58.91
53116;BME280;39010;48.088;7.954;2023-01-16T00:25:54;97505.53;;;5.04;58.76
53116;BME280;39010;48.088;7.954;2023-01-16T00:28:21;97497.25;;;4.98;59.81
53116;BME280;39010;48.088;7.954;2023-01-16T00:30:47;97478.47;;;5.00;59.23
53116;BME280;39010;48.088;7.954;2023-01-16T00:33:14;97477.63;;;4.99;59.97
53116;BME280;39010;48.088;7.954;2023-01-16T00:35:40;97483.81;;;5.00;59.41
53116;BME280;39010;48.088;7.954;2023-01-16T00:38:06;97459.31;;;5.05;59.33
53116;BME280;39010;48.088;7.954;2023-01-16T00:40:33;97471.97;;;5.03;59.61
53116;BME280;39010;48.088;7.954;2023-01-16T00:42:59;97480.13;;;5.01;60.11
53116;BME280;39010;48.088;7.954;2023-01-16T00:45:26;97467.16;;;5.06;59.73
53116;BME280;39010;48.088;7.954;2023-01-16T00:47:52;97456.31;;;5.08;59.22
53116;BME280;39010;48.088;7.954;2023-01-16T00:50:19;97460.31;;;5.04;60.02
53116;BME280;39010;48.088;7.954;2023-01-16T00:52:45;97456.66;;;5.05;59.79
53116;BME280;39010;48.088;7.954;2023-01-16T00:55:12;97427.28;;;4.98;60.18
53116;BME280;39010;48.088;7.954;2023-01-16T00:57:38;97434.63;;;4.96;59.93
53116;BME280;39010;48.088;7.954;2023-01-16T01:00:05;97429.75;;;4.99;59.45
53116;BME280;39010;48.088;7.954;2023-01-16T01:02:34;97431.06;;;5.04;59.80
53116;BME280;39010;48.088;7.954;2023-01-16T01:05:00;97428.25;;;5.05;59.75
53116;BME280;39010;48.088;7.954;2023-01-16T01:07:27;97425.75;;;5.04;60.09
53116;BME280;39010;48.088;7.954;2023-01-16T01:09:53;97415.09;;;5.04;60.39
53116;BME280;39010;48.088;7.954;2023-01-16T01:12:20;97405.25;;;5.12;59.47
53116;BME280;39010;48.088;7.954;2023-01-16T01:14:46;97405.06;;;5.14;59.33
53116;BME280;39010;48.088;7.954;2023-01-16T01:17:13;97394.78;;;5.11;59.44
53116;BME280;39010;48.088;7.954;2023-01-16T01:19:39;97379.66;;;5.11;59.37
53116;BME280;39010;48.088;7.954;2023-01-16T01:22:06;97368.66;;;5.14;59.81
53116;BME280;39010;48.088;7.954;2023-01-16T01:24:32;97357.81;;;5.16;59.25
53116;BME280;39010;48.088;7.954;2023-01-16T01:26:59;97341.13;;;5.22;58.91
53116;BME280;39010;48.088;7.954;2023-01-16T01:29:25;97328.47;;;5.24;58.84
53116;BME280;39010;48.088;7.954;2023-01-16T01:31:51;97336.09;;;5.27;58.78
53116;BME280;39010;48.088;7.954;2023-01-16T01:34:18;97330.41;;;5.30;58.30
53116;BME280;39010;48.088;7.954;2023-01-16T01:36:44;97314.75;;;5.36;57.84
53116;BME280;39010;48.088;7.954;2023-01-16T01:39:11;97313.09;;;5.35;58.06
53116;BME280;39010;48.088;7.954;2023-01-16T01:41:37;97296.56;;;5.39;58.39
53116;BME280;39010;48.088;7.954;2023-01-16T01:44:39;97298.84;;;5.42;57.75
53116;BME280;39010;48.088;7.954;2023-01-16T01:46:50;97291.34;;;5.46;57.85
53116;BME280;39010;48.088;7.954;2023-01-16T01:49:24;97271.50;;;5.49;57.49
53116;BME280;39010;48.088;7.954;2023-01-16T01:51:54;97285.00;;;5.47;57.46
53116;BME280;39010;48.088;7.954;2023-01-16T01:54:25;97282.16;;;5.49;57.97
53116;BME280;39010;48.088;7.954;2023-01-16T01:57:01;97266.81;;;5.51;57.53
53116;BME280;39010;48.088;7.954;2023-01-16T01:59:33;97265.81;;;5.52;58.12
53116;BME280;39010;48.088;7.954;2023-01-16T02:02:02;97253.53;;;5.51;57.28
53116;BME280;39010;48.088;7.954;2023-01-16T02:04:33;97251.41;;;5.46;57.88
53116;BME280;39010;48.088;7.954;2023-01-16T02:07:05;97244.25;;;5.46;58.71
53116;BME280;39010;48.088;7.954;2023-01-16T02:09:32;97230.78;;;5.48;57.73
53116;BME280;39010;48.088;7.954;2023-01-16T02:12:12;97220.28;;;5.46;58.42
53116;BME280;39010;48.088;7.954;2023-01-16T02:14:41;97211.88;;;5.43;58.22
53116;BME280;39010;48.088;7.954;2023-01-16T02:17:09;97198.56;;;5.43;58.37
53116;BME280;39010;48.088;7.954;2023-01-16T02:22:58;97168.81;;;5.39;58.29
53116;BME280;39010;48.088;7.954;2023-01-16T02:28:46;97167.25;;;5.45;58.52
53116;BME280;39010;48.088;7.954;2023-01-16T02:34:19;97152.84;;;5.54;58.21
53116;BME280;39010;48.088;7.954;2023-01-16T02:42:45;97109.22;;;5.55;58.39
53116;BME280;39010;48.088;7.954;2023-01-16T02:50:38;97074.25;;;5.58;58.04
53116;BME280;39010;48.088;7.954;2023-01-16T02:56:01;97061.31;;;5.55;58.19
53116;BME280;39010;48.088;7.954;2023-01-16T02:58:39;97064.63;;;5.57;58.13
53116;BME280;39010;48.088;7.954;2023-01-16T03:01:08;97063.72;;;5.50;59.44
53116;BME280;39010;48.088;7.954;2023-01-16T03:03:41;97059.84;;;5.53;58.28
53116;BME280;39010;48.088;7.954;2023-01-16T03:06:38;97054.34;;;5.54;58.62
53116;BME280;39010;48.088;7.954;2023-01-16T03:22:23;97008.47;;;5.52;58.34
53116;BME280;39010;48.088;7.954;2023-01-16T03:35:46;96955.22;;;5.52;58.30
53116;BME280;39010;48.088;7.954;2023-01-16T03:38:15;96940.44;;;5.50;58.68
53116;BME280;39010;48.088;7.954;2023-01-16T03:40:46;96940.28;;;5.51;58.17
53116;BME280;39010;48.088;7.954;2023-01-16T03:43:33;96924.06;;;5.46;58.60
53116;BME280;39010;48.088;7.954;2023-01-16T03:46:10;96922.66;;;5.50;57.80
53116;BME280;39010;48.088;7.954;2023-01-16T03:48:51;96904.91;;;5.57;57.42
53116;BME280;39010;48.088;7.954;2023-01-16T03:51:23;96903.63;;;5.53;58.07
53116;BME280;39010;48.088;7.954;2023-01-16T03:54:04;96896.28;;;5.55;56.96
53116;BME280;39010;48.088;7.954;2023-01-16T03:56:52;96885.03;;;5.60;57.27
53116;BME280;39010;48.088;7.954;2023-01-16T03:59:21;96877.44;;;5.57;58.36
53116;BME280;39010;48.088;7.954;2023-01-16T04:01:56;96865.97;;;5.56;57.94
53116;BME280;39010;48.088;7.954;2023-01-16T04:04:29;96861.06;;;5.53;57.95
53116;BME280;39010;48.088;7.954;2023-01-16T04:07:01;96851.06;;;5.62;56.62
53116;BME280;39010;48.088;7.954;2023-01-16T04:09:36;96843.84;;;5.56;57.62
53116;BME280;39010;48.088;7.954;2023-01-16T04:12:07;96842.41;;;5.53;57.91
53116;BME280;39010;48.088;7.954;2023-01-16T04:14:34;96824.16;;;5.50;57.69
53116;BME280;39010;48.088;7.954;2023-01-16T04:17:02;96814.94;;;5.46;57.08
53116;BME280;39010;48.088;7.954;2023-01-16T04:19:30;96813.91;;;5.47;56.66
53116;BME280;39010;48.088;7.954;2023-01-16T04:21:59;96801.22;;;5.49;56.99
53116;BME280;39010;48.088;7.954;2023-01-16T04:24:30;96798.28;;;5.37;58.20
53116;BME280;39010;48.088;7.954;2023-01-16T04:26:57;96787.84;;;5.36;56.76
53116;BME280;39010;48.088;7.954;2023-01-16T04:29:24;96783.28;;;5.29;57.51
53116;BME280;39010;48.088;7.954;2023-01-16T04:31:52;96766.84;;;5.19;57.29
53116;BME280;39010;48.088;7.954;2023-01-16T04:34:18;96764.81;;;5.21;57.31
53116;BME280;39010;48.088;7.954;2023-01-16T04:36:44;96752.44;;;5.07;58.13
53116;BME280;39010;48.088;7.954;2023-01-16T04:39:11;96742.41;;;5.02;57.86
53116;BME280;39010;48.088;7.954;2023-01-16T04:41:37;96736.44;;;5.00;57.55
53116;BME280;39010;48.088;7.954;2023-01-16T04:44:07;96719.03;;;4.97;57.25
53116;BME280;39010;48.088;7.954;2023-01-16T04:46:34;96712.44;;;4.93;57.48
53116;BME280;39010;48.088;7.954;2023-01-16T04:49:01;96703.22;;;4.89;58.33
53116;BME280;39010;48.088;7.954;2023-01-16T04:51:27;96697.66;;;4.84;57.57
53116;BME280;39010;48.088;7.954;2023-01-16T04:53:55;96683.56;;;4.83;56.50
53116;BME280;39010;48.088;7.954;2023-01-16T04:56:21;96668.03;;;4.87;55.93
53116;BME280;39010;48.088;7.954;2023-01-16T04:58:48;96663.81;;;4.99;55.22
53116;BME280;39010;48.088;7.954;2023-01-16T05:01:21;96658.63;;;4.91;55.74
53116;BME280;39010;48.088;7.954;2023-01-16T05:03:48;96646.13;;;4.85;55.94
53116;BME280;39010;48.088;7.954;2023-01-16T05:06:15;96646.13;;;4.85;55.08
53116;BME280;39010;48.088;7.954;2023-01-16T05:08:42;96645.72;;;4.88;54.99
53116;BME280;39010;48.088;7.954;2023-01-16T05:11:09;96640.25;;;4.90;55.07
53116;BME280;39010;48.088;7.954;2023-01-16T05:13:36;96620.41;;;4.92;54.96
53116;BME280;39010;48.088;7.954;2023-01-16T05:16:02;96623.28;;;4.91;54.66
53116;BME280;39010;48.088;7.954;2023-01-16T05:18:30;96617.97;;;4.97;53.57
53116;BME280;39010;48.088;7.954;2023-01-16T05:20:56;96599.97;;;4.99;53.29
53116;BME280;39010;48.088;7.954;2023-01-16T05:23:23;96603.50;;;5.07;53.27
53116;BME280;39010;48.088;7.954;2023-01-16T05:25:49;96584.41;;;4.96;56.38
53116;BME280;39010;48.088;7.954;2023-01-16T05:28:16;96585.56;;;4.80;56.98
53116;BME280;39010;48.088;7.954;2023-01-16T05:30:42;96561.50;;;4.89;53.68
53116;BME280;39010;48.088;7.954;2023-01-16T05:33:08;96550.06;;;5.01;52.65
53116;BME280;39010;48.088;7.954;2023-01-16T05:35:35;96543.56;;;5.04;54.06
53116;BME280;39010;48.088;7.954;2023-01-16T05:38:01;96542.50;;;4.98;54.82
53116;BME280;39010;48.088;7.954;2023-01-16T05:40:28;96517.81;;;5.11;52.30
53116;BME280;39010;48.088;7.954;2023-01-16T05:42:55;96512.09;;;5.14;52.61
53116;BME280;39010;48.088;7.954;2023-01-16T05:45:21;96498.19;;;5.19;52.83
53116;BME280;39010;48.088;7.954;2023-01-16T05:47:47;96492.03;;;5.12;53.87
53116;BME280;39010;48.088;7.954;2023-01-16T05:50:14;96491.66;;;5.22;52.93
53116;BME280;39010;48.088;7.954;2023-01-16T05:52:41;96468.72;;;5.27;51.21
53116;BME280;39010;48.088;7.954;2023-01-16T05:55:07;96456.25;;;5.41;50.93
53116;BME280;39010;48.088;7.954;2023-01-16T05:57:34;96451.94;;;5.40;52.38
53116;BME280;39010;48.088;7.954;2023-01-16T06:00:04;96432.31;;;5.41;50.73
53116;BME280;39010;48.088;7.954;2023-01-16T06:02:31;96427.19;;;5.40;51.29
53116;BME280;39010;48.088;7.954;2023-01-16T06:04:57;96417.78;;;5.37;50.79
53116;BME280;39010;48.088;7.954;2023-01-16T06:07:24;96399.38;;;5.36;51.88
53116;BME280;39010;48.088;7.954;2023-01-16T06:09:50;96401.19;;;5.28;51.81
53116;BME280;39010;48.088;7.954;2023-01-16T06:12:18;96398.56;;;5.55;49.65
53116;BME280;39010;48.088;7.954;2023-01-16T06:14:45;96385.25;;;5.55;50.53
53116;BME280;39010;48.088;7.954;2023-01-16T06:17:15;96373.34;;;5.58;49.48
53116;BME280;39010;48.088;7.954;2023-01-16T06:19:42;96369.25;;;5.62;49.26
53116;BME280;39010;48.088;7.954;2023-01-16T06:22:11;96372.13;;;5.60;49.33
53116;BME280;39010;48.088;7.954;2023-01-16T06:24:38;96370.09;;;5.63;49.52
53116;BME280;39010;48.088;7.954;2023-01-16T06:27:04;96363.31;;;5.80;48.11
53116;BME280;39010;48.088;7.954;2023-01-16T06:29:31;96351.00;;;5.79;48.55
53116;BME280;39010;48.088;7.954;2023-01-16T06:31:58;96343.44;;;5.76;48.33
53116;BME280;39010;48.088;7.954;2023-01-16T06:34:25;96343.84;;;5.73;48.92
53116;BME280;39010;48.088;7.954;2023-01-16T06:36:52;96340.75;;;5.83;47.69
53116;BME280;39010;48.088;7.954;2023-01-16T06:39:18;96329.50;;;5.81;48.02
53116;BME280;39010;48.088;7.954;2023-01-16T06:41:44;96325.41;;;5.78;48.58
53116;BME280;39010;48.088;7.954;2023-01-16T06:44:11;96312.72;;;5.80;48.80
53116;BME280;39010;48.088;7.954;2023-01-16T06:46:37;96306.09;;;5.96;47.27
53116;BME280;39010;48.088;7.954;2023-01-16T06:49:04;96301.19;;;5.93;47.43
53116;BME280;39010;48.088;7.954;2023-01-16T06:51:30;96294.66;;;5.96;47.23
53116;BME280;39010;48.088;7.954;2023-01-16T06:53:57;96287.06;;;5.93;47.57
53116;BME280;39010;48.088;7.954;2023-01-16T06:56:23;96272.91;;;5.99;47.42
53116;BME280;39010;48.088;7.954;2023-01-16T06:58:50;96266.75;;;5.98;46.92
53116;BME280;39010;48.088;7.954;2023-01-16T07:01:17;96264.13;;;6.05;46.57
53116;BME280;39010;48.088;7.954;2023-01-16T07:03:43;96261.44;;;6.05;47.13
53116;BME280;39010;48.088;7.954;2023-01-16T07:06:10;96255.06;;;5.99;47.16
53116;BME280;39010;48.088;7.954;2023-01-16T07:08:39;96238.72;;;6.02;47.44
53116;BME280;39010;48.088;7.954;2023-01-16T07:11:05;96246.91;;;6.01;46.78
53116;BME280;39010;48.088;7.954;2023-01-16T07:13:33;96238.09;;;6.00;46.81
53116;BME280;39010;48.088;7.954;2023-01-16T07:16:00;96227.78;;;6.17;45.89
53116;BME280;39010;48.088;7.954;2023-01-16T07:18:46;96237.22;;;6.13;46.67
53116;BME280;39010;48.088;7.954;2023-01-16T07:21:21;96232.50;;;6.15;45.82
53116;BME280;39010;48.088;7.954;2023-01-16T07:24:10;96228.81;;;6.16;46.47
53116;BME280;39010;48.088;7.954;2023-01-16T07:26:41;96223.22;;;6.25;45.13
53116;BME280;39010;48.088;7.954;2023-01-16T07:29:09;96206.78;;;6.28;45.42
53116;BME280;39010;48.088;7.954;2023-01-16T07:31:36;96213.75;;;6.29;45.22
53116;BME280;39010;48.088;7.954;2023-01-16T07:34:03;96214.59;;;6.29;45.54
53116;BME280;39010;48.088;7.954;2023-01-16T07:36:30;96196.53;;;6.31;45.83
53116;BME280;39010;48.088;7.954;2023-01-16T07:38:57;96198.09;;;6.39;45.00
53116;BME280;39010;48.088;7.954;2023-01-16T07:41:24;96186.84;;;6.37;45.15
53116;BME280;39010;48.088;7.954;2023-01-16T07:43:50;96196.91;;;6.35;45.29
53116;BME280;39010;48.088;7.954;2023-01-16T07:46:17;96183.06;;;6.52;44.03
53116;BME280;39010;48.088;7.954;2023-01-16T07:48:44;96180.72;;;6.62;43.65
53116;BME280;39010;48.088;7.954;2023-01-16T07:51:10;96190.78;;;6.60;43.88
53116;BME280;39010;48.088;7.954;2023-01-16T07:53:37;96206.19;;;6.58;44.73
53116;BME280;39010;48.088;7.954;2023-01-16T07:56:03;96193.03;;;6.63;44.24
53116;BME280;39010;48.088;7.954;2023-01-16T07:58:30;96204.88;;;6.67;43.54
53116;BME280;39010;48.088;7.954;2023-01-16T08:00:57;96198.31;;;6.70;44.29
53116;BME280;39010;48.088;7.954;2023-01-16T08:03:24;96183.22;;;6.57;44.56
53116;BME280;39010;48.088;7.954;2023-01-16T08:05:55;96199.38;;;6.62;44.43
53116;BME280;39010;48.088;7.954;2023-01-16T08:08:22;96204.44;;;6.70;44.03
53116;BME280;39010;48.088;7.954;2023-01-16T08:10:59;96194.81;;;6.69;44.50
53116;BME280;39010;48.088;7.954;2023-01-16T08:13:46;96206.50;;;6.68;44.64
53116;BME280;39010;48.088;7.954;2023-01-16T08:16:12;96195.84;;;6.68;44.33
53116;BME280;39010;48.088;7.954;2023-01-16T08:18:39;96190.09;;;6.71;45.50
53116;BME280;39010;48.088;7.954;2023-01-16T08:21:05;96177.44;;;6.67;45.80
53116;BME280;39010;48.088;7.954;2023-01-16T08:23:31;96169.19;;;6.68;46.14
53116;BME280;39010;48.088;7.954;2023-01-16T08:25:58;96170.63;;;6.71;46.39
53116;BME280;39010;48.088;7.954;2023-01-16T08:28:26;96180.88;;;6.67;46.16
53116;BME280;39010;48.088;7.954;2023-01-16T08:30:53;96172.72;;;6.62;46.63
53116;BME280;39010;48.088;7.954;2023-01-16T08:33:20;96162.22;;;6.67;46.76
53116;BME280;39010;48.088;7.954;2023-01-16T08:35:46;96172.13;;;6.60;47.66
53116;BME280;39010;48.088;7.954;2023-01-16T08:38:12;96187.97;;;6.55;47.72
53116;BME280;39010;48.088;7.954;2023-01-16T08:40:39;96187.97;;;6.55;48.44
53116;BME280;39010;48.088;7.954;2023-01-16T08:43:07;96183.72;;;6.47;49.44
53116;BME280;39010;48.088;7.954;2023-01-16T08:45:53;96193.97;;;6.43;49.61
53116;BME280;39010;48.088;7.954;2023-01-16T08:48:52;96190.59;;;6.29;51.05
53116;BME280;39010;48.088;7.954;2023-01-16T08:51:37;96194.75;;;6.18;52.35
53116;BME280;39010;48.088;7.954;2023-01-16T08:54:04;96163.03;;;6.17;53.67
53116;BME280;39010;48.088;7.954;2023-01-16T08:56:31;96202.84;;;6.05;54.42
53116;BME280;39010;48.088;7.954;2023-01-16T08:58:57;96179.38;;;5.82;56.18
53116;BME280;39010;48.088;7.954;2023-01-16T09:01:24;96182.91;;;5.69;57.15
53116;BME280;39010;48.088;7.954;2023-01-16T09:03:50;96180.69;;;5.59;57.15
53116;BME280;39010;48.088;7.954;2023-01-16T09:06:17;96185.22;;;5.58;57.98
53116;BME280;39010;48.088;7.954;2023-01-16T09:08:43;96170.94;;;5.46;59.19
53116;BME280;39010;48.088;7.954;2023-01-16T09:11:12;96156.00;;;5.45;59.26
53116;BME280;39010;48.088;7.954;2023-01-16T09:13:57;96160.72;;;5.43;58.45
53116;BME280;39010;48.088;7.954;2023-01-16T09:16:26;96169.09;;;5.40;59.12
53116;BME280;39010;48.088;7.954;2023-01-16T09:18:53;96168.69;;;5.36;59.86
53116;BME280;39010;48.088;7.954;2023-01-16T09:21:20;96153.56;;;5.37;59.29
53116;BME280;39010;48.088;7.954;2023-01-16T09:23:48;96158.91;;;5.30;60.23
53116;BME280;39010;48.088;7.954;2023-01-16T09:26:15;96158.09;;;5.29;60.58
53116;BME280;39010;48.088;7.954;2023-01-16T09:28:41;96177.72;;;5.28;61.96
53116;BME280;39010;48.088;7.954;2023-01-16T09:31:08;96175.09;;;5.22;62.57
53116;BME280;39010;48.088;7.954;2023-01-16T09:33:35;96169.19;;;5.13;63.06
53116;BME280;39010;48.088;7.954;2023-01-16T09:36:03;96178.00;;;5.07;63.85
53116;BME280;39010;48.088;7.954;2023-01-16T09:38:30;96173.72;;;4.99;64.70
53116;BME280;39010;48.088;7.954;2023-01-16T09:40:58;96176.78;;;4.89;65.53
53116;BME280;39010;48.088;7.954;2023-01-16T09:43:37;96165.94;;;4.84;67.04
53116;BME280;39010;48.088;7.954;2023-01-16T09:46:14;96183.13;;;4.75;69.05
53116;BME280;39010;48.088;7.954;2023-01-16T09:48:48;96162.50;;;4.56;70.52
53116;BME280;39010;48.088;7.954;2023-01-16T09:51:20;96167.19;;;4.48;71.70
53116;BME280;39010;48.088;7.954;2023-01-16T09:53:56;96157.81;;;4.38;73.83
53116;BME280;39010;48.088;7.954;2023-01-16T09:56:48;96150.84;;;4.31;73.78
53116;BME280;39010;48.088;7.954;2023-01-16T09:59:38;96156.59;;;4.21;74.54
53116;BME280;39010;48.088;7.954;2023-01-16T10:02:27;96150.84;;;4.17;76.65
53116;BME280;39010;48.088;7.954;2023-01-16T10:04:57;96149.84;;;4.11;78.45
53116;BME280;39010;48.088;7.954;2023-01-16T10:07:45;96142.47;;;4.00;78.27
53116;BME280;39010;48.088;7.954;2023-01-16T10:10:32;96135.69;;;3.97;78.47
53116;BME280;39010;48.088;7.954;2023-01-16T10:13:32;96137.16;;;4.00;80.85
53116;BME280;39010;48.088;7.954;2023-01-16T10:16:29;96134.47;;;3.87;79.65
53116;BME280;39010;48.088;7.954;2023-01-16T10:19:09;96117.09;;;3.77;81.70
53116;BME280;39010;48.088;7.954;2023-01-16T10:27:19;96111.38;;;3.74;82.54
53116;BME280;39010;48.088;7.954;2023-01-16T10:29:57;96109.13;;;3.64;83.02
53116;BME280;39010;48.088;7.954;2023-01-16T10:32:29;96097.66;;;3.63;84.50
53116;BME280;39010;48.088;7.954;2023-01-16T10:35:05;96109.13;;;3.71;84.53
53116;BME280;39010;48.088;7.954;2023-01-16T10:37:38;96105.66;;;3.70;84.71
53116;BME280;39010;48.088;7.954;2023-01-16T10:40:19;96084.44;;;3.70;88.25
53116;BME280;39010;48.088;7.954;2023-01-16T10:42:54;96084.22;;;3.65;85.00
53116;BME280;39010;48.088;7.954;2023-01-16T10:45:42;96082.56;;;3.71;86.71
53116;BME280;39010;48.088;7.954;2023-01-16T10:48:38;96075.63;;;3.63;87.50
53116;BME280;39010;48.088;7.954;2023-01-16T10:51:23;96053.78;;;3.54;87.65
53116;BME280;39010;48.088;7.954;2023-01-16T10:53:49;96057.03;;;3.49;88.51
53116;BME280;39010;48.088;7.954;2023-01-16T10:56:16;96049.09;;;3.49;88.28
53116;BME280;39010;48.088;7.954;2023-01-16T10:58:42;96037.66;;;3.56;88.27
53116;BME280;39010;48.088;7.954;2023-01-16T11:01:12;96034.41;;;3.53;89.11
53116;BME280;39010;48.088;7.954;2023-01-16T11:04:00;96024.22;;;3.64;87.21
53116;BME280;39010;48.088;7.954;2023-01-16T11:06:28;95999.72;;;3.68;87.54
53116;BME280;39010;48.088;7.954;2023-01-16T11:09:17;95994.63;;;3.80;86.64
53116;BME280;39010;48.088;7.954;2023-01-16T11:11:45;95986.44;;;3.82;86.27
53116;BME280;39010;48.088;7.954;2023-01-16T11:14:39;95971.16;;;3.91;88.28
53116;BME280;39010;48.088;7.954;2023-01-16T11:17:34;95965.00;;;4.10;82.80
53116;BME280;39010;48.088;7.954;2023-01-16T11:20:29;95958.44;;;4.20;84.06
53116;BME280;39010;48.088;7.954;2023-01-16T11:22:58;95952.31;;;4.26;81.99
53116;BME280;39010;48.088;7.954;2023-01-16T11:25:26;95949.00;;;4.37;82.85
53116;BME280;39010;48.088;7.954;2023-01-16T11:27:55;95926.03;;;4.50;80.23
53116;BME280;39010;48.088;7.954;2023-01-16T11:30:33;95923.94;;;4.65;80.12
53116;BME280;39010;48.088;7.954;2023-01-16T11:33:03;95913.91;;;4.74;78.46
53116;BME280;39010;48.088;7.954;2023-01-16T11:35:35;95908.34;;;4.76;77.64
53116;BME280;39010;48.088;7.954;2023-01-16T11:38:04;95898.13;;;4.79;78.81
53116;BME280;39010;48.088;7.954;2023-01-16T11:40:36;95881.25;;;4.99;77.80
53116;BME280;39010;48.088;7.954;2023-01-16T11:43:15;95873.69;;;5.28;71.79
53116;BME280;39010;48.088;7.954;2023-01-16T11:46:07;95878.94;;;5.35;73.53
53116;BME280;39010;48.088;7.954;2023-01-16T11:48:45;95850.59;;;5.47;74.41
53116;BME280;39010;48.088;7.954;2023-01-16T11:51:20;95849.16;;;5.70;68.79
53116;BME280;39010;48.088;7.954;2023-01-16T11:53:49;95836.16;;;5.80;68.19
53116;BME280;39010;48.088;7.954;2023-01-16T12:02:09;95824.22;;;6.08;65.90
53116;BME280;39010;48.088;7.954;2023-01-16T12:10:40;95812.44;;;6.46;62.80
53116;BME280;39010;48.088;7.954;2023-01-16T12:13:10;95816.66;;;6.54;62.17
53116;BME280;39010;48.088;7.954;2023-01-16T12:16:06;95797.16;;;6.54;60.06
53116;BME280;39010;48.088;7.954;2023-01-16T12:18:56;95794.97;;;6.51;61.45
53116;BME280;39010;48.088;7.954;2023-01-16T12:21:40;95785.78;;;6.46;61.16
53116;BME280;39010;48.088;7.954;2023-01-16T12:24:21;95800.59;;;6.42;60.58
53116;BME280;39010;48.088;7.954;2023-01-16T12:27:20;95788.44;;;6.16;64.55
53116;BME280;39010;48.088;7.954;2023-01-16T12:30:19;95808.50;;;6.00;64.63
53116;BME280;39010;48.088;7.954;2023-01-16T12:33:12;95796.88;;;5.94;65.36
53116;BME280;39010;48.088;7.954;2023-01-16T12:38:18;95778.63;;;5.79;66.99
53116;BME280;39010;48.088;7.954;2023-01-16T12:41:11;95790.59;;;5.70;67.07
53116;BME280;39010;48.088;7.954;2023-01-16T12:46:51;95746.81;;;5.66;66.38
53116;BME280;39010;48.088;7.954;2023-01-16T12:52:00;95759.59;;;5.57;68.74
53116;BME280;39010;48.088;7.954;2023-01-16T12:54:52;95764.34;;;5.55;68.88
53116;BME280;39010;48.088;7.954;2023-01-16T12:57:36;95778.31;;;5.50;69.28
53116;BME280;39010;48.088;7.954;2023-01-16T13:00:14;95780.66;;;5.40;70.90
53116;BME280;39010;48.088;7.954;2023-01-16T13:02:55;95774.28;;;5.22;73.34
53116;BME280;39010;48.088;7.954;2023-01-16T13:05:27;95769.94;;;5.03;74.48
53116;BME280;39010;48.088;7.954;2023-01-16T13:11:00;95751.13;;;4.79;77.80
53116;BME280;39010;48.088;7.954;2023-01-16T13:13:58;95739.03;;;4.83;79.21
53116;BME280;39010;48.088;7.954;2023-01-16T13:16:34;95720.56;;;4.88;78.02
53116;BME280;39010;48.088;7.954;2023-01-16T13:19:24;95708.78;;;5.03;77.42
53116;BME280;39010;48.088;7.954;2023-01-16T13:22:18;95714.50;;;5.06;76.52
53116;BME280;39010;48.088;7.954;2023-01-16T13:24:54;95693.19;;;5.81;74.01
53116;BME280;39010;48.088;7.954;2023-01-16T13:27:36;95700.22;;;5.94;71.40
53116;BME280;39010;48.088;7.954;2023-01-16T13:30:13;95675.06;;;5.89;71.01
53116;BME280;39010;48.088;7.954;2023-01-16T13:32:44;95688.09;;;6.40;66.81
53116;BME280;39010;48.088;7.954;2023-01-16T13:35:44;95677.13;;;6.48;67.72
53116;BME280;39010;48.088;7.954;2023-01-16T13:38:34;95678.66;;;6.68;67.39
53116;BME280;39010;48.088;7.954;2023-01-16T13:43:54;95638.22;;;6.59;63.70
53116;BME280;39010;48.088;7.954;2023-01-16T13:46:41;95638.88;;;6.55;64.35
53116;BME280;39010;48.088;7.954;2023-01-16T13:49:16;95678.53;;;6.51;63.63
53116;BME280;39010;48.088;7.954;2023-01-16T13:51:44;95646.75;;;6.49;62.29
53116;BME280;39010;48.088;7.954;2023-01-16T13:54:13;95657.19;;;6.51;62.85
53116;BME280;39010;48.088;7.954;2023-01-16T13:56:40;95631.94;;;6.54;61.44
53116;BME280;39010;48.088;7.954;2023-01-16T13:59:13;95647.59;;;6.62;61.02
53116;BME280;39010;48.088;7.954;2023-01-16T14:04:24;95640.88;;;6.71;60.03
53116;BME280;39010;48.088;7.954;2023-01-16T14:06:59;95658.50;;;6.72;59.85
53116;BME280;39010;48.088;7.954;2023-01-16T14:15:24;95621.63;;;6.69;60.65
53116;BME280;39010;48.088;7.954;2023-01-16T14:18:19;95663.31;;;6.52;63.15
53116;BME280;39010;48.088;7.954;2023-01-16T14:20:51;95651.88;;;5.78;70.90
53116;BME280;39010;48.088;7.954;2023-01-16T14:23:21;95704.97;;;5.17;76.06
53116;BME280;39010;48.088;7.954;2023-01-16T14:26:08;95694.63;;;4.65;82.39
53116;BME280;39010;48.088;7.954;2023-01-16T14:28:37;95675.41;;;4.63;81.59
53116;BME280;39010;48.088;7.954;2023-01-16T14:31:04;95678.44;;;4.92;79.03
53116;BME280;39010;48.088;7.954;2023-01-16T14:33:32;95684.28;;;5.00;78.44
53116;BME280;39010;48.088;7.954;2023-01-16T14:35:59;95672.28;;;4.91;81.20
53116;BME280;39010;48.088;7.954;2023-01-16T14:38:29;95691.19;;;4.83;82.22
53116;BME280;39010;48.088;7.954;2023-01-16T14:41:00;95715.97;;;4.77;82.51
53116;BME280;39010;48.088;7.954;2023-01-16T14:44:07;95689.28;;;4.65;84.23
53116;BME280;39010;48.088;7.954;2023-01-16T14:47:10;95697.47;;;4.63;83.68
53116;BME280;39010;48.088;7.954;2023-01-16T14:50:06;95717.59;;;4.52;86.83
53116;BME280;39010;48.088;7.954;2023-01-16T14:56:07;95724.19;;;4.43;87.38
53116;BME280;39010;48.088;7.954;2023-01-16T14:58:48;95710.69;;;4.45;87.34
53116;BME280;39010;48.088;7.954;2023-01-16T15:01:28;95699.09;;;4.39;88.08
53116;BME280;39010;48.088;7.954;2023-01-16T15:04:15;95700.06;;;4.45;85.55
53116;BME280;39010;48.088;7.954;2023-01-16T15:06:46;95687.53;;;4.52;83.92
53116;BME280;39010;48.088;7.954;2023-01-16T15:09:19;95698.56;;;4.55;84.03